sensor_id;sensor_type;location;lat;lon;timestamp;pressure;altitude;pressure_sealevel;temperature;humidity
70407;BME280;57821;52.202;0.154;2024-01-11T00:00:36;103348.34;;;0.95;86.20
70407;BME280;57821;52.202;0.154;2024-01-11T00:03:04;103338.81;;;0.92;86.01
70407;BME280;57821;52.202;0.154;2024-01-11T00:05:30;103340.34;;;0.90;86.45
70407;BME280;57821;52.202;0.154;2024-01-11T00:07:57;103347.25;;;0.91;86.42
70407;BME280;57821;52.202;0.154;2024-01-11T00:10:24;103343.03;;;0.92;86.60
70407;BME280;57821;52.202;0.154;2024-01-11T00:12:50;103350.69;;;0.92;86.68
70407;BME280;57821;52.202;0.154;2024-01-11T00:15:19;103343.78;;;0.91;86.74
70407;BME280;57821;52.202;0.154;2024-01-11T00:17:46;103349.78;;;0.91;86.74
70407;BME280;57821;52.202;0.154;2024-01-11T00:20:13;103345.44;;;0.90;86.83
70407;BME280;57821;52.202;0.154;2024-01-11T00:22:40;103350.56;;;0.90;87.24
70407;BME280;57821;52.202;0.154;2024-01-11T00:25:07;103352.22;;;0.90;86.83
70407;BME280;57821;52.202;0.154;2024-01-11T00:27:34;103353.88;;;0.89;87.23
70407;BME280;57821;52.202;0.154;2024-01-11T00:30:01;103348.78;;;0.89;87.21
70407;BME280;57821;52.202;0.154;2024-01-11T00:32:28;103340.78;;;0.85;87.39
70407;BME280;57821;52.202;0.154;2024-01-11T00:34:54;103355.47;;;0.87;87.27
70407;BME280;57821;52.202;0.154;2024-01-11T00:37:21;103356.31;;;0.88;87.42
70407;BME280;57821;52.202;0.154;2024-01-11T00:39:48;103350.56;;;0.90;87.83
70407;BME280;57821;52.202;0.154;2024-01-11T00:42:15;103345.00;;;0.84;87.86
70407;BME280;57821;52.202;0.154;2024-01-11T00:44:41;103358.34;;;0.92;87.96
70407;BME280;57821;52.202;0.154;2024-01-11T00:47:08;103364.88;;;0.88;87.63
70407;BME280;57821;52.202;0.154;2024-01-11T00:49:35;103369.34;;;0.91;87.92
70407;BME280;57821;52.202;0.154;2024-01-11T00:52:02;103371.13;;;0.92;88.11
70407;BME280;57821;52.202;0.154;2024-01-11T00:54:29;103372.78;;;0.91;88.36
70407;BME280;57821;52.202;0.154;2024-01-11T00:56:56;103378.78;;;0.92;88.24
70407;BME280;57821;52.202;0.154;2024-01-11T00:59:23;103377.22;;;0.94;88.28
70407;BME280;57821;52.202;0.154;2024-01-11T01:01:56;103384.88;;;0.94;88.42
70407;BME280;57821;52.202;0.154;2024-01-11T01:04:23;103386.66;;;0.95;88.17
70407;BME280;57821;52.202;0.154;2024-01-11T01:06:50;103392.69;;;0.95;88.29
70407;BME280;57821;52.202;0.154;2024-01-11T01:09:16;103391.00;;;0.96;88.51
70407;BME280;57821;52.202;0.154;2024-01-11T01:11:43;103392.03;;;0.98;88.35
70407;BME280;57821;52.202;0.154;2024-01-11T01:14:10;103397.16;;;0.98;88.42
70407;BME280;57821;52.202;0.154;2024-01-11T01:16:37;103397.16;;;0.98;88.38
70407;BME280;57821;52.202;0.154;2024-01-11T01:19:03;103398.81;;;0.97;88.18
70407;BME280;57821;52.202;0.154;2024-01-11T01:21:30;103409.03;;;0.97;88.65
70407;BME280;57821;52.202;0.154;2024-01-11T01:23:57;103404.69;;;0.96;88.64
70407;BME280;57821;52.202;0.154;2024-01-11T01:26:23;103421.94;;;0.99;88.76
70407;BME280;57821;52.202;0.154;2024-01-11T01:28:51;103412.13;;;0.93;88.46
70407;BME280;57821;52.202;0.154;2024-01-11T01:31:17;103415.03;;;0.98;88.68
70407;BME280;57821;52.202;0.154;2024-01-11T01:33:44;103425.25;;;0.98;88.36
70407;BME280;57821;52.202;0.154;2024-01-11T01:36:11;103430.34;;;0.98;88.45
70407;BME280;57821;52.202;0.154;2024-01-11T01:38:37;103423.59;;;0.98;88.64
70407;BME280;57821;52.202;0.154;2024-01-11T01:41:04;103425.25;;;0.98;88.65
70407;BME280;57821;52.202;0.154;2024-01-11T01:43:32;103427.81;;;0.98;88.38
70407;BME280;57821;52.202;0.154;2024-01-11T01:45:59;103426.91;;;0.97;88.30
70407;BME280;57821;52.202;0.154;2024-01-11T01:48:27;103422.56;;;0.96;88.47
70407;BME280;57821;52.202;0.154;2024-01-11T01:50:54;103419.88;;;0.95;88.27
70407;BME280;57821;52.202;0.154;2024-01-11T01:53:22;103425.00;;;0.95;88.06
70407;BME280;57821;52.202;0.154;2024-01-11T01:55:51;103428.31;;;0.94;88.39
70407;BME280;57821;52.202;0.154;2024-01-11T01:58:19;103434.22;;;0.93;88.12
70407;BME280;57821;52.202;0.154;2024-01-11T02:00:48;103430.66;;;0.91;88.14
70407;BME280;57821;52.202;0.154;2024-01-11T02:03:17;103439.06;;;0.90;88.24
70407;BME280;57821;52.202;0.154;2024-01-11T02:05:54;103435.50;;;0.88;87.97
70407;BME280;57821;52.202;0.154;2024-01-11T02:08:22;103441.41;;;0.87;88.26
70407;BME280;57821;52.202;0.154;2024-01-11T02:10:50;103438.72;;;0.85;87.84
70407;BME280;57821;52.202;0.154;2024-01-11T02:13:16;103448.69;;;0.82;87.94
70407;BME280;57821;52.202;0.154;2024-01-11T02:15:44;103427.31;;;0.70;87.82
70407;BME280;57821;52.202;0.154;2024-01-11T02:18:12;103468.25;;;0.81;88.04
70407;BME280;57821;52.202;0.154;2024-01-11T02:20:39;103463.91;;;0.80;87.93
70407;BME280;57821;52.202;0.154;2024-01-11T02:23:09;103474.13;;;0.80;88.11
70407;BME280;57821;52.202;0.154;2024-01-11T02:25:37;103474.91;;;0.79;88.65
70407;BME280;57821;52.202;0.154;2024-01-11T02:28:04;103472.34;;;0.79;87.98
70407;BME280;57821;52.202;0.154;2024-01-11T02:30:31;103471.31;;;0.77;87.86
70407;BME280;57821;52.202;0.154;2024-01-11T02:32:58;103469.53;;;0.76;87.73
70407;BME280;57821;52.202;0.154;2024-01-11T02:35:26;103468.41;;;0.73;87.84
70407;BME280;57821;52.202;0.154;2024-01-11T02:37:53;103470.34;;;0.75;87.58
70407;BME280;57821;52.202;0.154;2024-01-11T02:40:21;103470.06;;;0.72;88.14
70407;BME280;57821;52.202;0.154;2024-01-11T02:42:48;103470.84;;;0.71;88.04
70407;BME280;57821;52.202;0.154;2024-01-11T02:45:15;103477.50;;;0.69;88.06
70407;BME280;57821;52.202;0.154;2024-01-11T02:47:42;103469.59;;;0.66;87.65
70407;BME280;57821;52.202;0.154;2024-01-11T02:50:09;103473.66;;;0.64;87.43
70407;BME280;57821;52.202;0.154;2024-01-11T02:52:38;103469.84;;;0.59;87.16
70407;BME280;57821;52.202;0.154;2024-01-11T02:55:05;103485.84;;;0.57;87.29
70407;BME280;57821;52.202;0.154;2024-01-11T02:57:32;103478.69;;;0.53;87.26
70407;BME280;57821;52.202;0.154;2024-01-11T02:59:59;103486.88;;;0.49;87.49
70407;BME280;57821;52.202;0.154;2024-01-11T03:02:25;103491.63;;;0.44;87.03
70407;BME280;57821;52.202;0.154;2024-01-11T03:04:52;103488.72;;;0.39;86.88
70407;BME280;57821;52.202;0.154;2024-01-11T03:07:19;103491.00;;;0.36;86.94
70407;BME280;57821;52.202;0.154;2024-01-11T03:09:45;103501.75;;;0.32;87.28
70407;BME280;57821;52.202;0.154;2024-01-11T03:12:12;103494.63;;;0.28;87.18
70407;BME280;57821;52.202;0.154;2024-01-11T03:14:39;103502.13;;;0.27;86.35
70407;BME280;57821;52.202;0.154;2024-01-11T03:17:06;103501.78;;;0.22;87.04
70407;BME280;57821;52.202;0.154;2024-01-11T03:19:32;103503.16;;;0.19;86.61
70407;BME280;57821;52.202;0.154;2024-01-11T03:21:59;103497.69;;;0.14;86.89
70407;BME280;57821;52.202;0.154;2024-01-11T03:24:29;103506.75;;;0.11;86.80
70407;BME280;57821;52.202;0.154;2024-01-11T03:26:56;103501.38;;;0.08;86.77
70407;BME280;57821;52.202;0.154;2024-01-11T03:29:22;103506.88;;;0.02;86.23
70407;BME280;57821;52.202;0.154;2024-01-11T03:31:49;103498.84;;;-0.03;87.08
70407;BME280;57821;52.202;0.154;2024-01-11T03:34:16;103502.84;;;-0.06;86.71
70407;BME280;57821;52.202;0.154;2024-01-11T03:36:43;103501.66;;;-0.10;86.35
70407;BME280;57821;52.202;0.154;2024-01-11T03:39:10;103504.59;;;-0.15;86.64
70407;BME280;57821;52.202;0.154;2024-01-11T03:41:36;103507.91;;;-0.16;86.34
70407;BME280;57821;52.202;0.154;2024-01-11T03:44:03;103506.78;;;-0.20;86.80
70407;BME280;57821;52.202;0.154;2024-01-11T03:46:30;103510.84;;;-0.22;87.01
70407;BME280;57821;52.202;0.154;2024-01-11T03:48:57;103515.69;;;-0.25;86.30
70407;BME280;57821;52.202;0.154;2024-01-11T03:51:24;103521.44;;;-0.27;86.47
70407;BME280;57821;52.202;0.154;2024-01-11T03:53:51;103516.97;;;-0.30;86.83
70407;BME280;57821;52.202;0.154;2024-01-11T03:56:17;103526.28;;;-0.30;86.70
70407;BME280;57821;52.202;0.154;2024-01-11T03:58:44;103524.34;;;-0.33;86.59
70407;BME280;57821;52.202;0.154;2024-01-11T04:01:11;103521.56;;;-0.36;86.94
70407;BME280;57821;52.202;0.154;2024-01-11T04:03:38;103526.53;;;-0.37;87.09
70407;BME280;57821;52.202;0.154;2024-01-11T04:06:05;103527.16;;;-0.40;86.20
70407;BME280;57821;52.202;0.154;2024-01-11T04:08:33;103522.56;;;-0.44;86.42
70407;BME280;57821;52.202;0.154;2024-01-11T04:11:04;103518.97;;;-0.46;86.78
70407;BME280;57821;52.202;0.154;2024-01-11T04:13:31;103521.41;;;-0.48;86.45
70407;BME280;57821;52.202;0.154;2024-01-11T04:15:57;103519.50;;;-0.50;87.33
70407;BME280;57821;52.202;0.154;2024-01-11T04:18:24;103517.59;;;-0.53;86.93
70407;BME280;57821;52.202;0.154;2024-01-11T04:20:51;103525.09;;;-0.54;86.95
70407;BME280;57821;52.202;0.154;2024-01-11T04:23:18;103515.53;;;-0.57;86.97
70407;BME280;57821;52.202;0.154;2024-01-11T04:25:45;103522.16;;;-0.59;87.46
70407;BME280;57821;52.202;0.154;2024-01-11T04:28:11;103520.25;;;-0.61;86.58
70407;BME280;57821;52.202;0.154;2024-01-11T04:30:38;103505.03;;;-0.70;87.47
70407;BME280;57821;52.202;0.154;2024-01-11T04:33:05;103528.50;;;-0.64;86.78
70407;BME280;57821;52.202;0.154;2024-01-11T04:35:32;103520.75;;;-0.65;86.64
70407;BME280;57821;52.202;0.154;2024-01-11T04:37:59;103520.75;;;-0.65;87.01
70407;BME280;57821;52.202;0.154;2024-01-11T04:40:25;103530.94;;;-0.65;87.80
70407;BME280;57821;52.202;0.154;2024-01-11T04:42:52;103539.34;;;-0.66;87.13
70407;BME280;57821;52.202;0.154;2024-01-11T04:45:19;103545.34;;;-0.66;87.06
70407;BME280;57821;52.202;0.154;2024-01-11T04:47:45;103546.25;;;-0.65;87.87
70407;BME280;57821;52.202;0.154;2024-01-11T04:50:12;103544.44;;;-0.66;87.31
70407;BME280;57821;52.202;0.154;2024-01-11T04:52:39;103551.34;;;-0.65;86.94
70407;BME280;57821;52.202;0.154;2024-01-11T04:55:07;103549.69;;;-0.65;87.61
70407;BME280;57821;52.202;0.154;2024-01-11T04:57:34;103547.25;;;-0.63;87.24
70407;BME280;57821;52.202;0.154;2024-01-11T05:00:00;103546.47;;;-0.62;87.79
70407;BME280;57821;52.202;0.154;2024-01-11T05:02:29;103536.94;;;-0.65;88.09
70407;BME280;57821;52.202;0.154;2024-01-11T05:04:56;103536.56;;;-0.59;88.05
70407;BME280;57821;52.202;0.154;2024-01-11T05:07:23;103537.31;;;-0.60;88.09
70407;BME280;57821;52.202;0.154;2024-01-11T05:09:49;103548.53;;;-0.58;87.66
70407;BME280;57821;52.202;0.154;2024-01-11T05:12:16;103548.66;;;-0.57;88.24
70407;BME280;57821;52.202;0.154;2024-01-11T05:14:43;103555.69;;;-0.54;88.35
70407;BME280;57821;52.202;0.154;2024-01-11T05:17:10;103556.59;;;-0.54;88.27
70407;BME280;57821;52.202;0.154;2024-01-11T05:19:37;103568.69;;;-0.51;88.90
70407;BME280;57821;52.202;0.154;2024-01-11T05:22:03;103565.22;;;-0.52;88.05
70407;BME280;57821;52.202;0.154;2024-01-11T05:24:30;103564.63;;;-0.49;88.55
70407;BME280;57821;52.202;0.154;2024-01-11T05:26:57;103568.97;;;-0.48;88.37
70407;BME280;57821;52.202;0.154;2024-01-11T05:29:24;103573.31;;;-0.47;89.13
70407;BME280;57821;52.202;0.154;2024-01-11T05:31:51;103573.31;;;-0.47;88.67
70407;BME280;57821;52.202;0.154;2024-01-11T05:34:18;103571.50;;;-0.48;88.82
70407;BME280;57821;52.202;0.154;2024-01-11T05:36:45;103580.44;;;-0.43;88.68
70407;BME280;57821;52.202;0.154;2024-01-11T05:39:11;103577.13;;;-0.42;88.86
70407;BME280;57821;52.202;0.154;2024-01-11T05:41:39;103583.22;;;-0.40;89.18
70407;BME280;57821;52.202;0.154;2024-01-11T05:44:05;103590.13;;;-0.39;89.85
70407;BME280;57821;52.202;0.154;2024-01-11T05:46:32;103590.25;;;-0.37;88.93
70407;BME280;57821;52.202;0.154;2024-01-11T05:48:59;103597.16;;;-0.36;89.55
70407;BME280;57821;52.202;0.154;2024-01-11T05:51:26;103610.78;;;-0.36;89.40
70407;BME280;57821;52.202;0.154;2024-01-11T05:53:53;103611.78;;;-0.34;89.73
70407;BME280;57821;52.202;0.154;2024-01-11T05:56:21;103609.25;;;-0.34;89.52
70407;BME280;57821;52.202;0.154;2024-01-11T05:58:47;103607.97;;;-0.29;90.18
70407;BME280;57821;52.202;0.154;2024-01-11T06:01:14;103619.22;;;-0.27;90.33
70407;BME280;57821;52.202;0.154;2024-01-11T06:03:41;103619.50;;;-0.24;90.49
70407;BME280;57821;52.202;0.154;2024-01-11T06:06:08;103608.03;;;-0.19;90.48
70407;BME280;57821;52.202;0.154;2024-01-11T06:08:35;103620.25;;;-0.15;91.38
70407;BME280;57821;52.202;0.154;2024-01-11T06:11:03;103618.09;;;-0.10;90.96
70407;BME280;57821;52.202;0.154;2024-01-11T06:13:31;103624.38;;;-0.07;91.06
70407;BME280;57821;52.202;0.154;2024-01-11T06:15:57;103622.34;;;-0.01;91.53
70407;BME280;57821;52.202;0.154;2024-01-11T06:18:24;103624.38;;;0.04;91.47
70407;BME280;57821;52.202;0.154;2024-01-11T06:20:51;103631.66;;;0.09;91.95
70407;BME280;57821;52.202;0.154;2024-01-11T06:23:17;103615.97;;;0.05;91.74
70407;BME280;57821;52.202;0.154;2024-01-11T06:25:46;103632.41;;;0.18;92.47
70407;BME280;57821;52.202;0.154;2024-01-11T06:28:13;103637.00;;;0.22;92.37
70407;BME280;57821;52.202;0.154;2024-01-11T06:30:40;103630.25;;;0.23;92.72
70407;BME280;57821;52.202;0.154;2024-01-11T06:33:07;103649.25;;;0.36;92.88
70407;BME280;57821;52.202;0.154;2024-01-11T06:35:34;103643.75;;;0.42;92.50
70407;BME280;57821;52.202;0.154;2024-01-11T06:38:01;103648.47;;;0.48;92.88
70407;BME280;57821;52.202;0.154;2024-01-11T06:40:27;103649.88;;;0.54;92.86
70407;BME280;57821;52.202;0.154;2024-01-11T06:42:54;103657.28;;;0.61;92.90
70407;BME280;57821;52.202;0.154;2024-01-11T06:45:22;103653.44;;;0.66;92.95
70407;BME280;57821;52.202;0.154;2024-01-11T06:47:48;103653.19;;;0.73;93.33
70407;BME280;57821;52.202;0.154;2024-01-11T06:50:16;103657.91;;;0.79;92.87
70407;BME280;57821;52.202;0.154;2024-01-11T06:52:42;103657.50;;;0.85;93.36
70407;BME280;57821;52.202;0.154;2024-01-11T06:55:09;103666.56;;;0.91;92.85
70407;BME280;57821;52.202;0.154;2024-01-11T06:57:37;103665.91;;;0.94;93.21
70407;BME280;57821;52.202;0.154;2024-01-11T07:00:05;103664.50;;;0.97;93.25
70407;BME280;57821;52.202;0.154;2024-01-11T07:02:33;103670.00;;;1.02;92.74
70407;BME280;57821;52.202;0.154;2024-01-11T07:05:00;103666.66;;;1.03;92.48
70407;BME280;57821;52.202;0.154;2024-01-11T07:07:27;103668.56;;;1.05;92.38
70407;BME280;57821;52.202;0.154;2024-01-11T07:09:54;103673.81;;;1.07;91.72
70407;BME280;57821;52.202;0.154;2024-01-11T07:12:22;103672.81;;;1.05;92.12
70407;BME280;57821;52.202;0.154;2024-01-11T07:14:49;103661.03;;;1.07;92.11
70407;BME280;57821;52.202;0.154;2024-01-11T07:17:15;103662.81;;;1.08;91.42
70407;BME280;57821;52.202;0.154;2024-01-11T07:19:42;103655.91;;;1.07;92.07
70407;BME280;57821;52.202;0.154;2024-01-11T07:22:09;103665.50;;;1.09;91.88
70407;BME280;57821;52.202;0.154;2024-01-11T07:24:36;103658.34;;;1.05;91.69
70407;BME280;57821;52.202;0.154;2024-01-11T07:27:05;103673.03;;;1.08;91.12
70407;BME280;57821;52.202;0.154;2024-01-11T07:29:35;103682.38;;;1.07;91.30
70407;BME280;57821;52.202;0.154;2024-01-11T07:32:02;103680.72;;;1.08;91.52
70407;BME280;57821;52.202;0.154;2024-01-11T07:34:30;103688.38;;;1.08;91.50
70407;BME280;57821;52.202;0.154;2024-01-11T07:36:57;103697.69;;;1.07;92.09
70407;BME280;57821;52.202;0.154;2024-01-11T07:39:24;103696.81;;;1.07;91.14
70407;BME280;57821;52.202;0.154;2024-01-11T07:41:51;103702.81;;;1.07;91.32
70407;BME280;57821;52.202;0.154;2024-01-11T07:44:19;103709.56;;;1.07;91.08
70407;BME280;57821;52.202;0.154;2024-01-11T07:46:46;103715.44;;;1.06;91.59
70407;BME280;57821;52.202;0.154;2024-01-11T07:49:20;103720.69;;;1.07;91.48
70407;BME280;57821;52.202;0.154;2024-01-11T07:51:47;103726.84;;;1.09;91.75
70407;BME280;57821;52.202;0.154;2024-01-11T07:54:14;103722.63;;;1.10;91.97
70407;BME280;57821;52.202;0.154;2024-01-11T07:56:41;103736.66;;;1.15;91.52
70407;BME280;57821;52.202;0.154;2024-01-11T07:59:09;103737.78;;;1.18;92.05
70407;BME280;57821;52.202;0.154;2024-01-11T08:01:40;103741.50;;;1.22;92.23
70407;BME280;57821;52.202;0.154;2024-01-11T08:04:07;103748.78;;;1.28;92.46
70407;BME280;57821;52.202;0.154;2024-01-11T08:06:34;103744.81;;;1.31;92.14
70407;BME280;57821;52.202;0.154;2024-01-11T08:09:01;103741.72;;;1.35;92.51
70407;BME280;57821;52.202;0.154;2024-01-11T08:11:31;103743.78;;;1.39;92.20
70407;BME280;57821;52.202;0.154;2024-01-11T08:14:02;103747.31;;;1.41;92.09
70407;BME280;57821;52.202;0.154;2024-01-11T08:16:32;103759.84;;;1.48;92.41
70407;BME280;57821;52.202;0.154;2024-01-11T08:18:59;103755.00;;;1.51;92.92
70407;BME280;57821;52.202;0.154;2024-01-11T08:21:28;103768.13;;;1.56;92.48
70407;BME280;57821;52.202;0.154;2024-01-11T08:23:55;103767.72;;;1.61;93.04
70407;BME280;57821;52.202;0.154;2024-01-11T08:26:27;103773.09;;;1.64;92.63
70407;BME280;57821;52.202;0.154;2024-01-11T08:28:54;103773.84;;;1.74;92.93
70407;BME280;57821;52.202;0.154;2024-01-11T08:31:20;103772.66;;;1.80;93.13
70407;BME280;57821;52.202;0.154;2024-01-11T08:33:47;103770.59;;;1.86;93.13
70407;BME280;57821;52.202;0.154;2024-01-11T08:36:19;103773.59;;;1.92;93.47
70407;BME280;57821;52.202;0.154;2024-01-11T08:38:46;103767.31;;;1.99;93.29
70407;BME280;57821;52.202;0.154;2024-01-11T08:41:13;103780.59;;;2.05;92.68
70407;BME280;57821;52.202;0.154;2024-01-11T08:43:40;103781.84;;;2.10;93.21
70407;BME280;57821;52.202;0.154;2024-01-11T08:46:07;103782.31;;;2.16;92.39
70407;BME280;57821;52.202;0.154;2024-01-11T08:48:34;103784.59;;;2.23;92.95
70407;BME280;57821;52.202;0.154;2024-01-11T08:51:00;103792.75;;;2.29;93.19
70407;BME280;57821;52.202;0.154;2024-01-11T08:53:27;103792.47;;;2.36;92.85
70407;BME280;57821;52.202;0.154;2024-01-11T08:55:54;103796.25;;;2.41;92.14
70407;BME280;57821;52.202;0.154;2024-01-11T08:58:21;103789.06;;;2.47;92.21
70407;BME280;57821;52.202;0.154;2024-01-11T09:00:48;103797.22;;;2.54;92.06
70407;BME280;57821;52.202;0.154;2024-01-11T09:03:14;103791.78;;;2.61;91.63
70407;BME280;57821;52.202;0.154;2024-01-11T09:05:43;103796.25;;;2.63;91.96
70407;BME280;57821;52.202;0.154;2024-01-11T09:08:10;103805.28;;;2.70;92.47
70407;BME280;57821;52.202;0.154;2024-01-11T09:10:37;103807.31;;;2.74;91.49
70407;BME280;57821;52.202;0.154;2024-01-11T09:13:04;103797.53;;;2.80;91.78
70407;BME280;57821;52.202;0.154;2024-01-11T09:15:31;103814.94;;;2.84;91.04
70407;BME280;57821;52.202;0.154;2024-01-11T09:17:58;103807.72;;;2.90;91.45
70407;BME280;57821;52.202;0.154;2024-01-11T09:20:27;103812.28;;;2.94;91.30
70407;BME280;57821;52.202;0.154;2024-01-11T09:22:53;103812.75;;;3.00;90.48
70407;BME280;57821;52.202;0.154;2024-01-11T09:25:20;103806.06;;;3.02;90.19
70407;BME280;57821;52.202;0.154;2024-01-11T09:27:47;103815.00;;;3.07;90.91
70407;BME280;57821;52.202;0.154;2024-01-11T09:30:13;103811.88;;;3.11;90.40
70407;BME280;57821;52.202;0.154;2024-01-11T09:32:40;103809.66;;;3.16;90.67
70407;BME280;57821;52.202;0.154;2024-01-11T09:35:07;103816.13;;;3.22;90.55
70407;BME280;57821;52.202;0.154;2024-01-11T09:37:38;103809.66;;;3.27;90.97
70407;BME280;57821;52.202;0.154;2024-01-11T09:40:05;103811.47;;;3.28;90.29
70407;BME280;57821;52.202;0.154;2024-01-11T09:42:37;103818.16;;;3.38;90.09
70407;BME280;57821;52.202;0.154;2024-01-11T09:45:17;103824.63;;;3.45;90.09
70407;BME280;57821;52.202;0.154;2024-01-11T09:47:45;103823.28;;;3.50;90.26
70407;BME280;57821;52.202;0.154;2024-01-11T09:50:13;103829.00;;;3.57;90.02
70407;BME280;57821;52.202;0.154;2024-01-11T09:52:47;103837.28;;;3.65;90.80
70407;BME280;57821;52.202;0.154;2024-01-11T09:55:15;103835.94;;;3.70;90.36
70407;BME280;57821;52.202;0.154;2024-01-11T09:57:47;103841.50;;;3.76;90.29
70407;BME280;57821;52.202;0.154;2024-01-11T10:00:17;103840.94;;;3.80;89.61
70407;BME280;57821;52.202;0.154;2024-01-11T10:02:45;103846.53;;;3.86;90.20
70407;BME280;57821;52.202;0.154;2024-01-11T10:05:13;103850.31;;;3.91;89.23
70407;BME280;57821;52.202;0.154;2024-01-11T10:07:42;103857.47;;;3.95;89.04
70407;BME280;57821;52.202;0.154;2024-01-11T10:10:09;103855.00;;;3.97;89.06
70407;BME280;57821;52.202;0.154;2024-01-11T10:12:37;103862.25;;;4.02;89.85
70407;BME280;57821;52.202;0.154;2024-01-11T10:15:08;103861.69;;;4.06;88.83
70407;BME280;57821;52.202;0.154;2024-01-11T10:17:42;103850.41;;;4.04;88.33
70407;BME280;57821;52.202;0.154;2024-01-11T10:20:13;103858.75;;;4.13;88.64
70407;BME280;57821;52.202;0.154;2024-01-11T10:22:41;103862.56;;;4.19;89.28
70407;BME280;57821;52.202;0.154;2024-01-11T10:27:35;103861.44;;;4.27;88.01
70407;BME280;57821;52.202;0.154;2024-01-11T10:30:02;103863.34;;;4.29;87.80
70407;BME280;57821;52.202;0.154;2024-01-11T10:32:29;103862.75;;;4.33;88.22
70407;BME280;57821;52.202;0.154;2024-01-11T10:34:56;103872.47;;;4.37;88.64
70407;BME280;57821;52.202;0.154;2024-01-11T10:37:23;103868.22;;;4.38;88.22
70407;BME280;57821;52.202;0.154;2024-01-11T10:39:52;103871.22;;;4.44;88.44
70407;BME280;57821;52.202;0.154;2024-01-11T10:42:24;103858.72;;;4.37;88.07
70407;BME280;57821;52.202;0.154;2024-01-11T10:44:54;103857.41;;;4.42;87.77
70407;BME280;57821;52.202;0.154;2024-01-11T10:47:23;103870.28;;;4.55;87.28
70407;BME280;57821;52.202;0.154;2024-01-11T10:49:51;103874.06;;;4.60;87.26
70407;BME280;57821;52.202;0.154;2024-01-11T10:52:22;103851.31;;;4.53;87.11
70407;BME280;57821;52.202;0.154;2024-01-11T10:54:56;103854.31;;;4.59;87.23
70407;BME280;57821;52.202;0.154;2024-01-11T10:57:23;103867.91;;;4.70;87.59
70407;BME280;57821;52.202;0.154;2024-01-11T10:59:51;103873.47;;;4.76;86.55
70407;BME280;57821;52.202;0.154;2024-01-11T11:02:20;103878.75;;;4.77;86.07
70407;BME280;57821;52.202;0.154;2024-01-11T11:04:48;103868.91;;;4.72;87.29
70407;BME280;57821;52.202;0.154;2024-01-11T11:07:18;103874.38;;;4.76;86.33
70407;BME280;57821;52.202;0.154;2024-01-11T11:09:46;103864.44;;;4.69;86.46
70407;BME280;57821;52.202;0.154;2024-01-11T11:12:18;103884.97;;;4.81;85.91
70407;BME280;57821;52.202;0.154;2024-01-11T11:14:46;103882.50;;;4.82;85.36
70407;BME280;57821;52.202;0.154;2024-01-11T11:17:15;103882.50;;;4.82;85.58
70407;BME280;57821;52.202;0.154;2024-01-11T11:19:42;103890.66;;;4.88;85.92
70407;BME280;57821;52.202;0.154;2024-01-11T11:22:12;103883.84;;;4.89;85.88
70407;BME280;57821;52.202;0.154;2024-01-11T11:24:40;103885.81;;;4.93;85.98
70407;BME280;57821;52.202;0.154;2024-01-11T11:27:06;103882.53;;;4.95;85.86
70407;BME280;57821;52.202;0.154;2024-01-11T11:29:34;103875.06;;;4.99;84.94
70407;BME280;57821;52.202;0.154;2024-01-11T11:32:02;103872.69;;;5.02;84.60
70407;BME280;57821;52.202;0.154;2024-01-11T11:34:43;103875.38;;;5.03;84.65
70407;BME280;57821;52.202;0.154;2024-01-11T11:37:12;103872.13;;;5.06;84.87
70407;BME280;57821;52.202;0.154;2024-01-11T11:39:41;103873.81;;;5.05;85.01
70407;BME280;57821;52.202;0.154;2024-01-11T11:42:09;103881.03;;;5.11;85.18
70407;BME280;57821;52.202;0.154;2024-01-11T11:44:52;103880.34;;;5.13;84.82
70407;BME280;57821;52.202;0.154;2024-01-11T11:47:21;103878.09;;;5.18;85.33
70407;BME280;57821;52.202;0.154;2024-01-11T11:50:04;103880.88;;;5.21;85.33
70407;BME280;57821;52.202;0.154;2024-01-11T11:52:39;103878.72;;;5.27;84.47
70407;BME280;57821;52.202;0.154;2024-01-11T11:55:07;103856.16;;;5.23;84.87
70407;BME280;57821;52.202;0.154;2024-01-11T11:57:35;103872.50;;;5.36;84.24
70407;BME280;57821;52.202;0.154;2024-01-11T12:00:03;103874.38;;;5.39;84.00
70407;BME280;57821;52.202;0.154;2024-01-11T12:02:39;103869.66;;;5.45;84.12
70407;BME280;57821;52.202;0.154;2024-01-11T12:05:05;103868.16;;;5.49;83.79
70407;BME280;57821;52.202;0.154;2024-01-11T12:07:32;103859.75;;;5.51;84.83
70407;BME280;57821;52.202;0.154;2024-01-11T12:10:00;103861.75;;;5.55;84.33
70407;BME280;57821;52.202;0.154;2024-01-11T12:12:27;103868.06;;;5.60;83.58
70407;BME280;57821;52.202;0.154;2024-01-11T12:14:57;103863.94;;;5.62;84.58
70407;BME280;57821;52.202;0.154;2024-01-11T12:17:25;103861.53;;;5.65;84.12
70407;BME280;57821;52.202;0.154;2024-01-11T12:19:52;103862.66;;;5.69;83.54
70407;BME280;57821;52.202;0.154;2024-01-11T12:22:19;103870.56;;;5.72;83.69
70407;BME280;57821;52.202;0.154;2024-01-11T12:24:46;103868.19;;;5.75;83.69
70407;BME280;57821;52.202;0.154;2024-01-11T12:27:13;103867.50;;;5.77;83.74
70407;BME280;57821;52.202;0.154;2024-01-11T12:29:40;103872.06;;;5.82;83.35
70407;BME280;57821;52.202;0.154;2024-01-11T12:32:22;103860.16;;;5.84;82.73
70407;BME280;57821;52.202;0.154;2024-01-11T12:34:49;103861.94;;;5.85;83.59
70407;BME280;57821;52.202;0.154;2024-01-11T12:37:16;103863.75;;;5.86;82.86
70407;BME280;57821;52.202;0.154;2024-01-11T12:39:43;103858.03;;;5.90;82.70
70407;BME280;57821;52.202;0.154;2024-01-11T12:42:09;103854.75;;;5.92;83.30
70407;BME280;57821;52.202;0.154;2024-01-11T12:44:37;103846.44;;;5.96;83.23
70407;BME280;57821;52.202;0.154;2024-01-11T12:47:07;103836.84;;;5.94;82.71
70407;BME280;57821;52.202;0.154;2024-01-11T12:49:34;103840.78;;;6.02;83.31
70407;BME280;57821;52.202;0.154;2024-01-11T12:52:01;103831.59;;;6.05;82.98
70407;BME280;57821;52.202;0.154;2024-01-11T12:54:32;103835.34;;;6.10;83.72
70407;BME280;57821;52.202;0.154;2024-01-11T12:56:59;103835.50;;;6.13;82.92
70407;BME280;57821;52.202;0.154;2024-01-11T12:59:26;103828.78;;;6.15;83.25
70407;BME280;57821;52.202;0.154;2024-01-11T13:01:53;103835.91;;;6.19;83.26